createdAt,value
2022-12-14T00:01:51.974Z,100295.59
2022-12-14T00:04:20.630Z,100286.00
2022-12-14T00:06:48.403Z,100276.56
2022-12-14T00:09:15.593Z,100273.03
2022-12-14T00:11:42.717Z,100276.44
2022-12-14T00:14:10.214Z,100266.06
2022-12-14T00:16:37.522Z,100272.06
2022-12-14T00:19:05.706Z,100263.34
2022-12-14T00:21:33.988Z,100265.06
2022-12-14T00:24:01.140Z,100257.31
2022-12-14T00:26:31.888Z,100259.84
2022-12-14T00:29:01.562Z,100261.44
2022-12-14T00:31:29.956Z,100251.06
2022-12-14T00:33:57.163Z,100237.19
2022-12-14T00:36:24.864Z,100234.56
2022-12-14T00:38:52.108Z,100234.56
2022-12-14T00:41:19.448Z,100231.91
2022-12-14T00:43:49.936Z,100224.94
2022-12-14T00:46:18.098Z,100218.81
2022-12-14T00:48:45.672Z,100211.84
2022-12-14T00:51:15.086Z,100220.41
2022-12-14T00:53:44.060Z,100214.31
2022-12-14T00:56:12.180Z,100216.75
2022-12-14T00:58:39.500Z,100214.94
2022-12-14T01:01:15.078Z,100215.78
2022-12-14T01:03:42.927Z,100222.63
2022-12-14T01:06:23.358Z,100219.94
2022-12-14T01:08:50.625Z,100212.88
2022-12-14T01:11:17.881Z,100220.56
2022-12-14T01:13:49.295Z,100211.81
2022-12-14T01:16:18.464Z,100214.34
2022-12-14T01:18:46.871Z,100206.50
2022-12-14T01:21:20.337Z,100212.47
2022-12-14T01:23:52.993Z,100204.53
2022-12-14T01:26:24.957Z,100208.88
2022-12-14T01:28:59.198Z,100204.47
2022-12-14T01:31:30.922Z,100208.81
2022-12-14T01:33:59.169Z,100204.53
2022-12-14T01:36:30.569Z,100197.63
2022-12-14T01:39:15.725Z,100196.75
2022-12-14T01:41:53.118Z,100199.25
2022-12-14T01:44:20.376Z,100201.06
2022-12-14T01:47:12.370Z,100201.84
2022-12-14T01:49:54.873Z,100211.28
2022-12-14T01:52:38.714Z,100205.19
2022-12-14T01:55:22.754Z,100197.38
2022-12-14T01:58:02.236Z,100193.84
2022-12-14T02:00:29.840Z,100181.72
2022-12-14T02:03:07.840Z,100189.47
2022-12-14T02:05:54.033Z,100181.69
2022-12-14T02:08:24.193Z,100178.13
2022-12-14T02:10:54.218Z,100175.44
2022-12-14T02:13:35.421Z,100182.28
2022-12-14T02:16:03.319Z,100165.06
2022-12-14T02:18:32.174Z,100171.03
2022-12-14T02:21:50.322Z,100174.44
2022-12-14T02:24:54.820Z,100166.50
2022-12-14T02:27:25.286Z,100166.47
2022-12-14T02:30:21.860Z,100159.41
2022-12-14T02:33:21.676Z,100161.03
2022-12-14T02:40:00.936Z,100160.97
2022-12-14T02:43:12.195Z,100151.50
2022-12-14T02:46:18.930Z,100155.00
2022-12-14T02:49:01.119Z,100157.66
2022-12-14T02:51:55.995Z,100164.63
2022-12-14T02:55:04.339Z,100162.19
2022-12-14T02:57:58.163Z,100161.41
2022-12-14T03:00:28.867Z,100151.25
2022-12-14T03:02:57.719Z,100154.75
2022-12-14T03:05:28.482Z,100158.31
2022-12-14T03:08:06.957Z,100148.16
2022-12-14T03:10:58.615Z,100154.31
2022-12-14T03:13:44.634Z,100145.81
2022-12-14T03:16:30.560Z,100150.22
2022-12-14T03:19:04.642Z,100150.34
2022-12-14T03:21:44.385Z,100140.84
2022-12-14T03:24:19.153Z,100133.16
2022-12-14T03:27:07.666Z,100120.31
2022-12-14T03:29:54.157Z,100121.34
2022-12-14T03:32:25.584Z,100115.31
2022-12-14T03:35:05.091Z,100112.78
2022-12-14T03:37:56.589Z,100118.88
2022-12-14T03:40:48.528Z,100118.09
2022-12-14T03:43:41.060Z,100109.50
2022-12-14T03:46:25.376Z,100100.06
2022-12-14T03:49:02.301Z,100101.84
2022-12-14T03:52:06.587Z,100092.41
2022-12-14T03:54:51.696Z,100095.03
2022-12-14T03:57:43.816Z,100090.75
2022-12-14T04:00:17.008Z,100090.81
2022-12-14T04:03:05.855Z,100086.56
2022-12-14T04:06:02.670Z,100081.41
2022-12-14T04:09:04.697Z,100083.13
2022-12-14T04:11:59.563Z,100078.84
2022-12-14T04:14:53.951Z,100073.75
2022-12-14T04:17:46.997Z,100065.13
2022-12-14T04:20:47.282Z,100057.47
2022-12-14T04:23:45.274Z,100053.94
2022-12-14T04:26:19.486Z,100062.63
2022-12-14T04:29:20.841Z,100058.41
2022-12-14T04:32:00.971Z,100056.69
2022-12-14T04:34:30.529Z,100048.13
2022-12-14T04:37:02.877Z,100049.00
2022-12-14T04:39:47.931Z,100051.59
2022-12-14T04:42:18.116Z,100051.59
2022-12-14T04:44:55.249Z,100037.88
2022-12-14T04:47:32.387Z,100037.88
2022-12-14T04:50:17.819Z,100042.19
2022-12-14T04:53:14.009Z,100037.88
2022-12-14T04:56:20.290Z,100049.94
2022-12-14T04:58:47.771Z,100043.91
2022-12-14T05:01:51.721Z,100038.75
2022-12-14T05:04:30.904Z,100040.44
2022-12-14T05:07:31.568Z,100031.81
2022-12-14T05:10:10.267Z,100033.63
2022-12-14T05:13:05.472Z,100033.63
2022-12-14T05:16:02.813Z,100031.94
2022-12-14T05:18:33.695Z,100032.84
2022-12-14T05:21:01.099Z,100023.41
2022-12-14T05:23:28.641Z,100015.72
2022-12-14T05:25:56.291Z,100019.16
2022-12-14T05:28:23.463Z,100020.03
2022-12-14T05:30:50.922Z,100019.16
2022-12-14T05:33:20.469Z,100014.00
2022-12-14T05:35:48.027Z,100007.97
2022-12-14T05:38:15.134Z,100012.25
2022-12-14T05:40:42.960Z,100007.97
2022-12-14T05:43:12.625Z,100009.72
2022-12-14T05:45:40.236Z,100003.63
2022-12-14T05:48:07.430Z,100002.88
2022-12-14T05:50:34.614Z,100003.63
2022-12-14T05:53:01.984Z,100008.81
2022-12-14T05:55:29.263Z,100000.97
2022-12-14T05:57:56.777Z,100010.56
2022-12-14T06:00:24.023Z,100014.00
2022-12-14T06:02:51.363Z,100014.00
2022-12-14T06:05:18.476Z,100008.84
2022-12-14T06:07:48.582Z,100011.47
2022-12-14T06:10:16.415Z,100004.63
2022-12-14T06:12:43.677Z,100007.25
2022-12-14T06:15:11.277Z,100007.38
2022-12-14T06:18:06.021Z,100003.09
2022-12-14T06:20:33.309Z,100003.97
2022-12-14T06:23:01.716Z,100010.00
2022-12-14T06:25:29.658Z,100002.31
2022-12-14T06:27:57.043Z,100002.38
2022-12-14T06:30:24.261Z,100005.00
2022-12-14T06:32:51.383Z,100002.38
2022-12-14T06:35:18.791Z,100004.16
2022-12-14T06:37:46.062Z,100003.28
2022-12-14T06:40:16.348Z,100008.53
2022-12-14T06:42:44.506Z,100000.84
2022-12-14T06:45:12.033Z,99999.09
2022-12-14T06:47:40.322Z,99999.97
2022-12-14T06:50:08.041Z,100009.50
2022-12-14T06:52:35.082Z,100007.78
2022-12-14T06:55:02.240Z,100005.16
2022-12-14T06:57:29.471Z,99999.22
2022-12-14T06:59:56.753Z,99996.56
2022-12-14T07:02:24.300Z,100004.34
2022-12-14T07:04:51.555Z,100007.75
2022-12-14T07:07:18.818Z,100006.88
2022-12-14T07:09:45.970Z,100012.06
2022-12-14T07:12:13.153Z,100014.66
2022-12-14T07:14:40.516Z,100020.69
2022-12-14T07:17:07.897Z,100015.53
2022-12-14T07:19:35.294Z,100010.34
2022-12-14T07:22:04.437Z,100010.34
2022-12-14T07:24:32.041Z,100014.63
2022-12-14T07:27:00.447Z,100022.34
2022-12-14T07:29:34.118Z,100023.28
2022-12-14T07:32:01.868Z,100025.81
2022-12-14T07:34:29.125Z,100025.81
2022-12-14T07:36:56.621Z,100015.50
2022-12-14T07:39:24.349Z,100022.41
2022-12-14T07:41:52.240Z,100025.84
2022-12-14T07:44:19.502Z,100018.13
2022-12-14T07:46:48.244Z,100024.16
2022-12-14T07:49:15.633Z,100018.06
2022-12-14T07:51:44.364Z,100030.19
2022-12-14T07:54:12.943Z,100015.50
2022-12-14T07:56:43.322Z,100018.91
2022-12-14T07:59:19.327Z,100017.19
2022-12-14T08:01:46.582Z,100019.72
2022-12-14T08:04:20.895Z,100027.34
2022-12-14T08:06:49.384Z,100027.22
2022-12-14T08:09:17.502Z,100026.34
2022-12-14T08:11:45.165Z,100027.94
2022-12-14T08:14:19.187Z,100030.47
2022-12-14T08:16:48.842Z,100037.38
2022-12-14T08:19:18.272Z,100037.31
2022-12-14T08:21:45.981Z,100033.03
2022-12-14T08:24:14.830Z,100043.41
2022-12-14T08:26:42.065Z,100033.97
2022-12-14T08:29:16.951Z,100038.44
2022-12-14T08:31:44.260Z,100038.53
2022-12-14T08:34:11.601Z,100036.91
2022-12-14T08:36:39.102Z,100041.34
2022-12-14T08:39:16.602Z,100040.50
2022-12-14T08:41:43.727Z,100045.84
2022-12-14T08:44:11.745Z,100046.72
2022-12-14T08:46:39.605Z,100045.06
2022-12-14T08:49:07.018Z,100045.94
2022-12-14T08:51:39.623Z,100045.13
2022-12-14T08:54:06.734Z,100045.06
2022-12-14T08:56:34.029Z,100039.88
2022-12-14T08:59:01.498Z,100053.53
2022-12-14T09:01:34.029Z,100062.06
2022-12-14T09:04:08.404Z,100068.06
2022-12-14T09:06:39.258Z,100068.00
2022-12-14T09:09:15.462Z,100064.50
2022-12-14T09:11:44.998Z,100062.84
2022-12-14T09:14:12.756Z,100065.50
2022-12-14T09:16:41.208Z,100057.69
2022-12-14T09:19:08.957Z,100054.19
2022-12-14T09:21:36.726Z,100051.94
2022-12-14T09:24:05.877Z,100060.00
2022-12-14T09:26:37.608Z,100067.25
2022-12-14T09:29:05.818Z,100069.25
2022-12-14T09:31:33.161Z,100071.38
2022-12-14T09:34:00.681Z,100062.97
2022-12-14T09:36:29.347Z,100074.13
2022-12-14T09:38:57.951Z,100074.09
2022-12-14T09:41:35.955Z,100076.84
2022-12-14T09:44:29.500Z,100073.47
2022-12-14T09:47:27.928Z,100081.94
2022-12-14T09:50:06.816Z,100079.25
2022-12-14T09:53:16.274Z,100085.31
2022-12-14T09:55:51.958Z,100089.63
2022-12-14T09:58:33.109Z,100086.44
2022-12-14T10:01:23.148Z,100078.88
2022-12-14T10:04:16.594Z,100073.13
2022-12-14T10:07:20.359Z,100069.97
2022-12-14T10:10:06.234Z,100069.41
2022-12-14T10:12:51.597Z,100070.38
2022-12-14T10:15:55.984Z,100076.44
2022-12-14T10:19:02.451Z,100075.78
2022-12-14T10:22:19.661Z,100087.16
2022-12-14T10:24:55.736Z,100082.97
2022-12-14T10:27:27.493Z,100077.88
2022-12-14T10:30:08.726Z,100071.16
2022-12-14T10:32:40.697Z,100077.38
2022-12-14T10:35:21.148Z,100074.00
2022-12-14T10:38:21.383Z,100063.72
2022-12-14T10:40:53.785Z,100063.00
2022-12-14T10:43:58.413Z,100059.63
2022-12-14T10:46:40.000Z,100064.88
2022-12-14T10:50:01.449Z,100065.88
2022-12-14T10:53:08.586Z,100069.38
2022-12-14T10:55:41.738Z,100065.19
2022-12-14T10:58:11.909Z,100067.00
2022-12-14T11:00:39.931Z,100073.16
2022-12-14T11:03:15.778Z,100075.88
2022-12-14T11:05:56.281Z,100075.06
2022-12-14T11:08:48.073Z,100069.94
2022-12-14T11:11:25.921Z,100082.97
2022-12-14T11:14:18.686Z,100076.13
2022-12-14T11:16:46.054Z,100081.38
2022-12-14T11:19:23.925Z,100084.00
2022-12-14T11:22:11.202Z,100090.09
2022-12-14T11:24:48.676Z,100083.22
2022-12-14T11:27:21.462Z,100090.19
2022-12-14T11:29:50.993Z,100077.28
2022-12-14T11:32:26.427Z,100084.25
2022-12-14T11:34:59.393Z,100087.78
2022-12-14T11:37:32.367Z,100078.31
2022-12-14T11:40:06.782Z,100082.69
2022-12-14T11:42:34.199Z,100068.88
2022-12-14T11:45:29.412Z,100069.78
2022-12-14T11:48:15.261Z,100079.31
2022-12-14T11:50:45.017Z,100082.75
2022-12-14T11:53:18.814Z,100075.88
2022-12-14T11:55:59.902Z,100081.16
2022-12-14T11:58:34.164Z,100083.78
2022-12-14T12:01:26.556Z,100079.47
2022-12-14T12:03:58.911Z,100078.66
2022-12-14T12:06:31.435Z,100079.56
2022-12-14T12:09:12.368Z,100079.63
2022-12-14T12:11:45.477Z,100081.38
2022-12-14T12:14:35.626Z,100084.84
2022-12-14T12:17:20.404Z,100082.22
2022-12-14T12:19:51.563Z,100082.31
2022-12-14T12:22:20.463Z,100082.31
2022-12-14T12:25:33.642Z,100078.88
2022-12-14T12:28:29.823Z,100077.16
2022-12-14T12:31:11.013Z,100080.66
2022-12-14T12:33:54.674Z,100082.38
2022-12-14T12:36:24.496Z,100077.22
2022-12-14T12:39:25.039Z,100081.53
2022-12-14T12:42:15.268Z,100082.41
2022-12-14T12:45:04.493Z,100082.47
2022-12-14T12:47:51.387Z,100081.59
2022-12-14T12:50:27.872Z,100079.06
2022-12-14T12:53:12.877Z,100080.78
2022-12-14T12:55:52.628Z,100082.47
2022-12-14T12:58:32.744Z,100087.66
2022-12-14T13:01:20.267Z,100087.59
2022-12-14T13:03:55.977Z,100090.25
2022-12-14T13:06:52.772Z,100087.69
2022-12-14T13:09:48.936Z,100097.22
2022-12-14T13:13:10.602Z,100092.03
2022-12-14T13:16:28.080Z,100097.22
2022-12-14T13:19:48.717Z,100097.19
2022-12-14T13:21:54.588Z,100100.69
2022-12-14T13:24:23.874Z,100105.84
2022-12-14T13:27:17.880Z,100105.84
2022-12-14T13:30:17.770Z,100105.84
2022-12-14T13:33:45.994Z,100111.88
2022-12-14T13:36:36.717Z,100115.38
2022-12-14T13:39:46.242Z,100113.66
2022-12-14T13:42:40.439Z,100111.03
2022-12-14T13:45:23.809Z,100111.84
2022-12-14T13:47:55.704Z,100111.84
2022-12-14T13:50:37.162Z,100113.47
2022-12-14T13:53:16.628Z,100110.88
2022-12-14T13:55:55.719Z,100114.38
2022-12-14T13:58:46.145Z,100114.28
2022-12-14T14:01:48.517Z,100121.97
2022-12-14T14:04:31.490Z,100127.88
2022-12-14T14:07:26.559Z,100120.91
2022-12-14T14:10:03.180Z,100122.56
2022-12-14T14:12:39.620Z,100125.84
2022-12-14T14:16:26.931Z,100130.97
2022-12-14T14:19:02.976Z,100135.28
2022-12-14T14:25:25.287Z,100134.13
2022-12-14T14:28:00.042Z,100143.41
2022-12-14T14:30:42.724Z,100140.56
2022-12-14T14:33:47.800Z,100156.00
2022-12-14T14:36:37.830Z,100155.84
2022-12-14T14:39:54.990Z,100158.34
2022-12-14T14:42:25.341Z,100149.50
2022-12-14T14:45:08.727Z,100161.47
2022-12-14T14:47:40.376Z,100163.91
2022-12-14T14:50:24.069Z,100156.75
2022-12-14T14:53:14.030Z,100178.06
2022-12-14T14:56:00.149Z,100176.97
2022-12-14T14:58:37.884Z,100173.38
2022-12-14T15:01:29.847Z,100176.53
2022-12-14T15:04:00.411Z,100172.81
2022-12-14T15:06:40.244Z,100174.28
2022-12-14T15:09:11.152Z,100180.91
2022-12-14T15:11:56.825Z,100185.69
2022-12-14T15:14:48.827Z,100191.47
2022-12-14T15:17:21.927Z,100186.88
2022-12-14T15:19:51.852Z,100183.09
2022-12-14T15:22:23.693Z,100182.81
2022-12-14T15:24:56.288Z,100175.66
2022-12-14T15:27:28.013Z,100184.06
2022-12-14T15:30:02.751Z,100173.47
2022-12-14T15:32:33.737Z,100178.38
2022-12-14T15:35:09.069Z,100183.19
2022-12-14T15:37:58.003Z,100188.13
2022-12-14T15:40:32.789Z,100187.00
2022-12-14T15:43:17.955Z,100198.78
2022-12-14T15:45:50.862Z,100201.13
2022-12-14T15:48:34.614Z,100195.72
2022-12-14T15:51:17.029Z,100203.28
2022-12-14T15:53:57.562Z,100203.03
2022-12-14T15:56:45.801Z,100210.56
2022-12-14T15:59:32.552Z,100208.66
2022-12-14T16:02:46.417Z,100210.13
2022-12-14T16:05:22.002Z,100215.03
2022-12-14T16:07:56.188Z,100218.31
2022-12-14T16:10:32.040Z,100218.13
2022-12-14T16:13:25.439Z,100220.56
2022-12-14T16:15:54.296Z,100220.38
2022-12-14T16:18:21.954Z,100236.59
2022-12-14T16:21:03.989Z,100237.41
2022-12-14T16:23:39.122Z,100235.44
2022-12-14T16:29:29.086Z,100241.03
2022-12-14T16:32:06.208Z,100232.19
2022-12-14T16:34:34.176Z,100238.00
2022-12-14T16:37:31.479Z,100234.31
2022-12-14T16:39:53.755Z,100238.41
2022-12-14T16:42:31.507Z,100245.16
2022-12-14T16:44:58.697Z,100252.72
2022-12-14T16:47:35.272Z,100249.97
2022-12-14T16:50:40.068Z,100251.50
2022-12-14T16:53:26.323Z,100249.56
2022-12-14T16:56:04.778Z,100250.25
2022-12-14T16:58:34.442Z,100252.69
2022-12-14T17:01:06.407Z,100256.06
2022-12-14T17:03:36.348Z,100253.38
2022-12-14T17:06:06.688Z,100259.19
2022-12-14T17:08:34.824Z,100268.47
2022-12-14T17:11:03.327Z,100272.66
2022-12-14T17:13:31.647Z,100259.56
2022-12-14T17:16:06.817Z,100264.66
2022-12-14T17:18:41.521Z,100261.19
2022-12-14T17:21:16.768Z,100262.75
2022-12-14T17:23:46.256Z,100266.94
2022-12-14T17:26:30.596Z,100276.22
2022-12-14T17:28:58.781Z,100281.13
2022-12-14T17:31:27.832Z,100275.84
2022-12-14T17:33:57.391Z,100279.09
2022-12-14T17:36:25.377Z,100285.84
2022-12-14T17:38:53.907Z,100284.75
2022-12-14T17:41:26.214Z,100282.91
2022-12-14T17:43:57.791Z,100286.22
2022-12-14T17:46:26.010Z,100278.38
2022-12-14T17:48:53.618Z,100272.19
2022-12-14T17:51:30.492Z,100278.94
2022-12-14T17:53:59.655Z,100275.44
2022-12-14T17:56:26.854Z,100282.19
2022-12-14T17:58:54.388Z,100279.47
2022-12-14T18:01:24.988Z,100278.50
2022-12-14T18:03:52.520Z,100280.06
2022-12-14T18:06:23.342Z,100279.91
2022-12-14T18:08:51.625Z,100278.00
2022-12-14T18:11:25.959Z,100285.66
2022-12-14T18:13:54.479Z,100282.09
2022-12-14T18:16:24.810Z,100288.84
2022-12-14T18:18:54.582Z,100289.44
2022-12-14T18:21:29.862Z,100286.84
2022-12-14T18:23:58.856Z,100282.47
2022-12-14T18:26:27.623Z,100278.94
2022-12-14T18:28:59.487Z,100283.94
2022-12-14T18:31:34.993Z,100281.19
2022-12-14T18:34:04.097Z,100287.00
2022-12-14T18:36:31.376Z,100291.16
2022-12-14T18:38:58.912Z,100297.13
2022-12-14T18:41:27.579Z,100294.25
2022-12-14T18:43:56.023Z,100294.16
2022-12-14T18:46:24.429Z,100305.16
2022-12-14T18:48:52.616Z,100305.09
2022-12-14T18:51:23.782Z,100302.28
2022-12-14T18:53:52.379Z,100297.06
2022-12-14T18:56:24.815Z,100304.72
2022-12-14T18:58:52.765Z,100308.00
2022-12-14T19:01:25.071Z,100312.97
2022-12-14T19:03:53.231Z,100306.81
2022-12-14T19:09:13.826Z,100311.47
2022-12-14T19:11:44.118Z,100312.22
2022-12-14T19:14:12.120Z,100310.25
2022-12-14T19:16:42.105Z,100311.00
2022-12-14T19:19:09.375Z,100314.25
2022-12-14T19:21:39.023Z,100313.25
2022-12-14T19:24:08.726Z,100309.78
2022-12-14T19:26:40.029Z,100312.22
2022-12-14T19:29:07.615Z,100310.25
2022-12-14T19:31:35.083Z,100299.13
2022-12-14T19:34:02.490Z,100306.66
2022-12-14T19:36:29.806Z,100308.34
2022-12-14T19:39:00.450Z,100311.63
2022-12-14T19:41:29.238Z,100314.03
2022-12-14T19:43:58.231Z,100324.22
2022-12-14T19:46:26.262Z,100323.34
2022-12-14T19:48:57.589Z,100327.50
2022-12-14T19:51:24.987Z,100325.66
2022-12-14T19:53:54.748Z,100335.84
2022-12-14T19:56:22.574Z,100335.69
2022-12-14T19:58:49.970Z,100339.75
2022-12-14T20:01:21.095Z,100345.69
2022-12-14T20:03:50.644Z,100353.31
2022-12-14T20:06:17.951Z,100349.78
2022-12-14T20:08:45.994Z,100353.31
2022-12-14T20:11:16.849Z,100353.25
2022-12-14T20:13:43.931Z,100360.06
2022-12-14T20:16:17.372Z,100361.63
2022-12-14T20:18:46.177Z,100359.78
2022-12-14T20:21:21.659Z,100350.88
2022-12-14T20:23:50.351Z,100357.75
2022-12-14T20:26:21.711Z,100361.84
2022-12-14T20:28:52.825Z,100367.78
2022-12-14T20:31:21.239Z,100366.03
2022-12-14T20:33:50.926Z,100365.06
2022-12-14T20:36:19.021Z,100362.22
2022-12-14T20:38:49.190Z,100358.69
2022-12-14T20:41:17.497Z,100361.00
2022-12-14T20:43:45.643Z,100372.84
2022-12-14T20:46:33.213Z,100371.81
2022-12-14T20:49:23.747Z,100380.19
2022-12-14T20:51:50.845Z,100384.38
2022-12-14T20:54:22.836Z,100391.09
2022-12-14T20:56:51.506Z,100406.41
2022-12-14T20:59:19.043Z,100405.31
2022-12-14T21:01:51.662Z,100413.81
2022-12-14T21:04:23.052Z,100417.25
2022-12-14T21:06:50.322Z,100417.97
2022-12-14T21:09:17.603Z,100414.34
2022-12-14T21:12:06.694Z,100431.47
2022-12-14T21:14:43.678Z,100422.81
2022-12-14T21:17:11.197Z,100421.06
2022-12-14T21:19:41.008Z,100415.13
2022-12-14T21:22:15.287Z,100405.84
2022-12-14T21:25:02.487Z,100397.19
2022-12-14T21:27:31.427Z,100405.75
2022-12-14T21:30:00.724Z,100395.50
2022-12-14T21:32:28.312Z,100392.88
2022-12-14T21:34:55.474Z,100391.09
2022-12-14T21:37:23.435Z,100393.66
2022-12-14T21:39:54.591Z,100399.50
2022-12-14T21:42:25.896Z,100410.66
2022-12-14T21:44:55.193Z,100416.56
2022-12-14T21:47:27.107Z,100424.34
2022-12-14T21:49:54.915Z,100421.06
2022-12-14T21:52:24.847Z,100416.81
2022-12-14T21:54:52.569Z,100421.06
2022-12-14T21:57:41.805Z,100424.34
2022-12-14T22:00:10.590Z,100438.66
2022-12-14T22:02:37.920Z,100438.66
2022-12-14T22:05:06.000Z,100436.00
2022-12-14T22:07:34.389Z,100441.13
2022-12-14T22:10:02.176Z,100435.13
2022-12-14T22:12:29.500Z,100436.78
2022-12-14T22:14:56.713Z,100431.50
2022-12-14T22:17:24.304Z,100433.19
2022-12-14T22:19:54.319Z,100435.63
2022-12-14T22:22:21.513Z,100449.25
2022-12-14T22:24:51.685Z,100453.50
2022-12-14T22:27:20.058Z,100448.19
2022-12-14T22:29:47.453Z,100450.69
2022-12-14T22:32:15.519Z,100460.03
2022-12-14T22:34:42.795Z,100455.59
2022-12-14T22:37:09.899Z,100452.88
2022-12-14T22:39:37.096Z,100464.00
2022-12-14T22:42:04.344Z,100475.94
2022-12-14T22:44:31.568Z,100474.16
2022-12-14T22:46:58.839Z,100474.97
2022-12-14T22:49:26.110Z,100480.88
2022-12-14T22:51:55.661Z,100484.13
2022-12-14T22:54:27.009Z,100482.38
2022-12-14T22:56:59.109Z,100487.50
2022-12-14T22:59:42.559Z,100485.00
2022-12-14T23:02:10.058Z,100478.13
2022-12-14T23:04:40.529Z,100479.81
2022-12-14T23:07:21.098Z,100481.38
2022-12-14T23:10:07.441Z,100482.09
2022-12-14T23:12:54.552Z,100486.53
2022-12-14T23:15:42.918Z,100480.44
2022-12-14T23:18:28.904Z,100484.66
2022-12-14T23:21:15.273Z,100483.66
2022-12-14T23:24:04.338Z,100485.34
2022-12-14T23:26:51.551Z,100495.59
2022-12-14T23:29:37.385Z,100492.84
2022-12-14T23:32:23.780Z,100493.75
2022-12-14T23:35:09.631Z,100497.97
2022-12-14T23:37:55.493Z,100497.97
2022-12-14T23:40:41.788Z,100491.19
2022-12-14T23:43:37.213Z,100491.09
2022-12-14T23:46:25.553Z,100488.63
2022-12-14T23:49:15.733Z,100479.16
2022-12-14T23:52:02.405Z,100483.56
2022-12-14T23:54:48.341Z,100492.34
2022-12-14T23:57:34.187Z,100495.00
